< < Back
Terminal Aerodrome Forecast


Current Version              Previous Versions:   1  2  3  4  5  6  7  8  9  

Terminal Aerodrome Forecast

206
FTUS42 KGSP 180500
TAFAND
TAF
KAND 180534Z 1806/1906 06006KT P6SM SCT050 OVC200
     FM180900 05006KT P6SM SCT025 BKN050
      TEMPO 1810/1814 BKN020 OVC050
     FM181400 05012KT P6SM OVC020
     FM182000 05013G19KT 5SM -SHRA OVC012
     FM190100 04014G22KT 4SM SHRA OVC008=



Latest METAR

799
SAUS70 KWBC 180500
MTRAND
METAR KAND 180456Z AUTO 04003KT 10SM CLR 11/M01 A3038 RMK AO2 SLP285
T01111006 401890033


USA.gov is the U.S. government's official web portal to all federal, state and local government web resources and services.